Terminal Aerodrome Forecast
Issued by NWS

Home | Current Version | Previous Version | Text Only | Print | Product List | Glossary On
Versions: 1 2 3 4 5 6 7 8 9 10 11 12
000
FTAK31 PAJN 292300
TAFAKT
TAF
PAKT 292326Z 3000/3024 33011KT P6SM BKN070
     FM300200 33006KT P6SM SCT070
     FM300500 00000KT P6SM BKN120
     FM301300 32006KT P6SM BKN100
     FM301800 32011KT P6SM SCT100
      AMD LTD TO CLD VIS AND WIND 3006/3015=

USA.gov is the U.S. government's official web portal to all federal, state and local government web resources and services.